createdAt,value
2022-12-11T00:01:24.648Z,100879.88
2022-12-11T00:03:51.920Z,100880.31
2022-12-11T00:06:21.611Z,100885.19
2022-12-11T00:08:51.479Z,100881.38
2022-12-11T00:11:18.014Z,100888.97
2022-12-11T00:13:44.753Z,100885.44
2022-12-11T00:16:11.625Z,100890.50
2022-12-11T00:18:38.381Z,100893.72
2022-12-11T00:21:07.491Z,100896.56
2022-12-11T00:23:37.762Z,100890.56
2022-12-11T00:26:14.639Z,100889.25
2022-12-11T00:28:41.448Z,100881.94
2022-12-11T00:31:10.030Z,100877.22
2022-12-11T00:33:36.460Z,100877.78
2022-12-11T00:36:02.993Z,100879.69
2022-12-11T00:38:29.384Z,100881.28
2022-12-11T00:40:59.812Z,100885.16
2022-12-11T00:43:26.267Z,100878.44
2022-12-11T00:45:52.755Z,100876.53
2022-12-11T00:48:19.353Z,100874.25
2022-12-11T00:50:46.381Z,100872.16
2022-12-11T00:53:12.856Z,100864.56
2022-12-11T00:55:40.940Z,100871.03
2022-12-11T00:58:08.158Z,100866.47
2022-12-11T01:00:35.082Z,100867.50
2022-12-11T01:03:01.595Z,100866.09
2022-12-11T01:05:28.405Z,100857.63
2022-12-11T01:07:54.935Z,100850.91
2022-12-11T01:10:24.091Z,100859.06
2022-12-11T01:12:54.414Z,100854.69
2022-12-11T01:15:23.112Z,100859.72
2022-12-11T01:17:51.143Z,100847.13
2022-12-11T01:20:18.884Z,100844.09
2022-12-11T01:22:45.506Z,100851.22
2022-12-11T01:25:12.533Z,100854.31
2022-12-11T01:27:39.419Z,100848.63
2022-12-11T01:30:08.082Z,100852.94
2022-12-11T01:32:35.832Z,100848.06
2022-12-11T01:35:08.122Z,100849.97
2022-12-11T01:37:34.889Z,100847.69
2022-12-11T01:40:02.099Z,100855.16
2022-12-11T01:42:31.460Z,100845.78
2022-12-11T01:45:16.746Z,100858.31
2022-12-11T01:47:44.179Z,100858.88
2022-12-11T01:50:11.412Z,100855.91
2022-12-11T01:52:37.945Z,100860.78
2022-12-11T01:55:04.764Z,100852.81
2022-12-11T01:57:31.334Z,100853.19
2022-12-11T01:59:57.824Z,100846.34
2022-12-11T02:02:30.723Z,100854.31
2022-12-11T02:04:58.231Z,100854.72
2022-12-11T02:07:24.784Z,100850.91
2022-12-11T02:09:51.305Z,100852.63
2022-12-11T02:12:33.729Z,100852.22
2022-12-11T02:15:13.194Z,100853.69
2022-12-11T02:18:07.934Z,100852.31
2022-12-11T02:20:40.485Z,100854.41
2022-12-11T02:23:13.032Z,100846.03
2022-12-11T02:26:06.808Z,100849.91
2022-12-11T02:28:48.524Z,100842.81
2022-12-11T02:31:37.983Z,100838.25
2022-12-11T02:34:20.580Z,100837.00
2022-12-11T02:36:52.840Z,100843.28
2022-12-11T02:39:22.464Z,100836.13
2022-12-11T02:41:51.369Z,100835.59
2022-12-11T02:44:24.172Z,100832.09
2022-12-11T02:46:51.012Z,100836.91
2022-12-11T02:49:18.919Z,100830.81
2022-12-11T02:51:45.671Z,100840.50
2022-12-11T02:54:17.738Z,100838.72
2022-12-11T02:56:52.561Z,100834.34
2022-12-11T02:59:30.982Z,100831.00
2022-12-11T03:01:57.769Z,100828.94
2022-12-11T03:04:24.980Z,100830.63
2022-12-11T03:06:56.396Z,100831.41
2022-12-11T03:09:22.868Z,100818.66
2022-12-11T03:11:49.300Z,100818.94
2022-12-11T03:14:15.912Z,100816.84
2022-12-11T03:16:55.190Z,100815.66
2022-12-11T03:19:37.153Z,100813.19
2022-12-11T03:22:10.791Z,100813.44
2022-12-11T03:24:44.086Z,100811.63
2022-12-11T03:27:36.505Z,100811.09
2022-12-11T03:30:11.425Z,100811.75
2022-12-11T03:32:47.947Z,100813.34
2022-12-11T03:35:21.561Z,100819.41
2022-12-11T03:37:51.009Z,100807.19
2022-12-11T03:40:20.458Z,100819.50
2022-12-11T03:42:51.432Z,100822.94
2022-12-11T03:45:20.781Z,100817.63
2022-12-11T03:47:47.938Z,100822.06
2022-12-11T03:50:18.158Z,100815.78
2022-12-11T03:52:46.578Z,100813.03
2022-12-11T03:55:15.924Z,100812.50
2022-12-11T03:57:43.564Z,100802.59
2022-12-11T04:00:19.283Z,100807.53
2022-12-11T04:03:11.364Z,100800.38
2022-12-11T04:05:48.184Z,100812.38
2022-12-11T04:08:16.031Z,100814.66
2022-12-11T04:10:42.930Z,100805.69
2022-12-11T04:13:10.542Z,100805.63
2022-12-11T04:15:38.604Z,100807.97
2022-12-11T04:18:24.561Z,100812.72
2022-12-11T04:21:12.805Z,100812.94
2022-12-11T04:23:58.027Z,100809.72
2022-12-11T04:26:24.737Z,100805.50
2022-12-11T04:28:51.512Z,100800.59
2022-12-11T04:31:22.071Z,100794.97
2022-12-11T04:33:48.612Z,100795.72
2022-12-11T04:36:15.306Z,100792.13
2022-12-11T04:38:41.766Z,100797.31
2022-12-11T04:41:11.290Z,100788.50
2022-12-11T04:43:38.028Z,100788.41
2022-12-11T04:46:06.128Z,100788.41
2022-12-11T04:48:32.893Z,100787.16
2022-12-11T04:50:59.510Z,100786.81
2022-12-11T04:53:26.338Z,100785.72
2022-12-11T04:55:52.895Z,100787.31
2022-12-11T04:58:19.314Z,100787.41
2022-12-11T05:00:45.828Z,100787.88
2022-12-11T05:03:12.964Z,100787.44
2022-12-11T05:05:39.873Z,100790.53
2022-12-11T05:08:06.389Z,100790.97
2022-12-11T05:10:32.826Z,100795.66
2022-12-11T05:12:59.304Z,100795.06
2022-12-11T05:15:25.712Z,100794.25
2022-12-11T05:17:52.125Z,100800.69
2022-12-11T05:20:18.590Z,100789.13
2022-12-11T05:22:44.999Z,100797.94
2022-12-11T05:25:11.677Z,100787.09
2022-12-11T05:27:39.415Z,100781.22
2022-12-11T05:30:06.579Z,100789.31
2022-12-11T05:32:32.977Z,100787.41
2022-12-11T05:34:59.455Z,100790.97
2022-12-11T05:37:25.861Z,100791.47
2022-12-11T05:39:52.265Z,100792.53
2022-12-11T05:42:19.495Z,100787.31
2022-12-11T05:44:49.494Z,100795.13
2022-12-11T05:47:16.607Z,100796.00
2022-12-11T05:49:43.446Z,100787.59
2022-12-11T05:52:09.872Z,100782.00
2022-12-11T05:54:36.292Z,100778.19
2022-12-11T05:57:02.718Z,100778.41
2022-12-11T05:59:29.176Z,100774.66
2022-12-11T06:01:55.716Z,100772.13
2022-12-11T06:04:22.377Z,100776.72
2022-12-11T06:06:48.814Z,100782.81
2022-12-11T06:09:16.536Z,100774.13
2022-12-11T06:11:43.319Z,100779.22
2022-12-11T06:14:10.981Z,100777.44
2022-12-11T06:16:37.887Z,100776.81
2022-12-11T06:19:04.330Z,100775.13
2022-12-11T06:21:32.513Z,100778.72
2022-12-11T06:24:02.042Z,100780.09
2022-12-11T06:26:29.470Z,100783.06
2022-12-11T06:28:56.029Z,100785.41
2022-12-11T06:31:22.627Z,100783.28
2022-12-11T06:33:49.501Z,100793.25
2022-12-11T06:36:21.486Z,100791.06
2022-12-11T06:38:48.588Z,100795.72
2022-12-11T06:41:15.772Z,100801.75
2022-12-11T06:43:43.036Z,100796.91
2022-12-11T06:46:12.733Z,100796.69
2022-12-11T06:48:39.803Z,100789.66
2022-12-11T06:51:08.332Z,100785.41
2022-12-11T06:53:35.456Z,100798.91
2022-12-11T06:56:06.901Z,100799.19
2022-12-11T06:58:37.561Z,100797.94
2022-12-11T07:01:05.498Z,100796.84
2022-12-11T07:03:32.010Z,100804.81
2022-12-11T07:06:02.408Z,100804.06
2022-12-11T07:08:29.345Z,100810.69
2022-12-11T07:10:55.778Z,100799.78
2022-12-11T07:13:22.268Z,100808.13
2022-12-11T07:15:48.643Z,100804.94
2022-12-11T07:18:15.072Z,100804.31
2022-12-11T07:20:41.447Z,100805.56
2022-12-11T07:23:07.960Z,100801.94
2022-12-11T07:25:34.346Z,100805.72
2022-12-11T07:28:00.728Z,100806.16
2022-12-11T07:30:27.161Z,100809.84
2022-12-11T07:32:53.681Z,100813.53
2022-12-11T07:35:20.158Z,100815.09
2022-12-11T07:37:46.640Z,100808.47
2022-12-11T07:40:13.863Z,100808.66
2022-12-11T07:42:45.823Z,100810.75
2022-12-11T07:45:13.146Z,100806.56
2022-12-11T07:47:39.719Z,100811.59
2022-12-11T07:50:06.319Z,100814.31
2022-12-11T07:52:33.837Z,100814.06
2022-12-11T07:55:00.268Z,100822.41
2022-12-11T07:57:28.153Z,100823.34
2022-12-11T07:59:55.464Z,100825.94
2022-12-11T08:02:22.212Z,100822.72
2022-12-11T08:04:49.997Z,100829.47
2022-12-11T08:07:16.398Z,100825.66
2022-12-11T08:09:42.787Z,100829.28
2022-12-11T08:12:09.207Z,100827.00
2022-12-11T08:14:35.608Z,100828.22
2022-12-11T08:17:02.635Z,100817.97
2022-12-11T08:19:29.107Z,100820.13
2022-12-11T08:21:55.703Z,100823.41
2022-12-11T08:24:22.201Z,100815.50
2022-12-11T08:26:49.022Z,100816.59
2022-12-11T08:29:15.539Z,100821.59
2022-12-11T08:31:42.217Z,100816.28
2022-12-11T08:34:08.851Z,100818.81
2022-12-11T08:36:35.224Z,100814.28
2022-12-11T08:39:01.747Z,100800.97
2022-12-11T08:41:30.163Z,100803.09
2022-12-11T08:43:58.618Z,100801.84
2022-12-11T08:46:27.781Z,100804.00
2022-12-11T08:48:55.010Z,100801.75
2022-12-11T08:51:23.750Z,100798.34
2022-12-11T08:53:51.228Z,100800.50
2022-12-11T08:56:20.182Z,100795.66
2022-12-11T08:58:47.449Z,100794.81
2022-12-11T09:01:17.979Z,100789.50
2022-12-11T09:03:44.861Z,100793.75
2022-12-11T09:06:14.275Z,100795.88
2022-12-11T09:08:41.567Z,100794.91
2022-12-11T09:11:14.499Z,100800.88
2022-12-11T09:13:42.045Z,100797.28
2022-12-11T09:16:14.821Z,100796.41
2022-12-11T09:18:42.446Z,100794.63
2022-12-11T09:21:13.411Z,100789.09
2022-12-11T09:23:40.626Z,100792.81
2022-12-11T09:26:08.599Z,100797.16
2022-12-11T09:28:35.076Z,100789.81
2022-12-11T09:31:01.511Z,100791.31
2022-12-11T09:33:28.007Z,100795.91
2022-12-11T09:36:02.790Z,100789.72
2022-12-11T09:38:29.976Z,100792.63
2022-12-11T09:40:56.493Z,100794.50
2022-12-11T09:43:37.368Z,100793.25
2022-12-11T09:46:10.747Z,100796.97
2022-12-11T09:48:39.405Z,100795.25
2022-12-11T09:51:19.131Z,100787.50
2022-12-11T09:53:45.978Z,100790.97
2022-12-11T09:56:17.455Z,100794.50
2022-12-11T09:59:05.294Z,100781.00
2022-12-11T10:02:00.071Z,100782.91
2022-12-11T10:04:35.326Z,100782.72
2022-12-11T10:07:28.475Z,100779.81
2022-12-11T10:10:13.150Z,100780.69
2022-12-11T10:12:57.336Z,100775.28
2022-12-11T10:15:44.153Z,100782.09
2022-12-11T10:18:16.217Z,100787.75
2022-12-11T10:20:44.373Z,100778.69
2022-12-11T10:23:20.214Z,100781.75
2022-12-11T10:26:08.516Z,100779.66
2022-12-11T10:28:35.711Z,100779.63
2022-12-11T10:31:28.858Z,100767.53
2022-12-11T10:34:03.500Z,100770.19
2022-12-11T10:36:34.107Z,100773.59
2022-12-11T10:39:01.362Z,100769.84
2022-12-11T10:41:39.203Z,100764.22
2022-12-11T10:44:17.565Z,100760.06
2022-12-11T10:46:45.005Z,100766.34
2022-12-11T10:49:51.779Z,100759.75
2022-12-11T10:52:25.566Z,100756.88
2022-12-11T10:55:21.288Z,100768.25
2022-12-11T10:57:55.685Z,100759.88
2022-12-11T11:00:28.414Z,100760.19
2022-12-11T11:02:55.383Z,100755.06
2022-12-11T11:05:30.434Z,100757.00
2022-12-11T11:08:22.540Z,100756.34
2022-12-11T11:10:58.132Z,100752.94
2022-12-11T11:13:27.133Z,100757.63
2022-12-11T11:16:11.415Z,100747.84
2022-12-11T11:18:40.763Z,100740.38
2022-12-11T11:21:16.453Z,100730.81
2022-12-11T11:23:46.364Z,100728.28
2022-12-11T11:26:17.942Z,100739.31
2022-12-11T11:28:54.585Z,100742.50
2022-12-11T11:31:30.474Z,100737.31
2022-12-11T11:34:07.823Z,100745.19
2022-12-11T11:36:36.563Z,100733.78
2022-12-11T11:39:19.983Z,100734.66
2022-12-11T11:42:15.180Z,100736.97
2022-12-11T11:45:05.244Z,100747.50
2022-12-11T11:47:50.824Z,100734.22
2022-12-11T11:50:25.700Z,100734.75
2022-12-11T11:53:02.264Z,100724.44
2022-12-11T11:55:51.836Z,100729.88
2022-12-11T11:58:31.305Z,100725.63
2022-12-11T12:00:57.689Z,100726.56
2022-12-11T12:03:25.549Z,100721.66
2022-12-11T12:06:09.718Z,100729.53
2022-12-11T12:08:45.301Z,100725.28
2022-12-11T12:11:23.752Z,100726.75
2022-12-11T12:13:57.715Z,100717.84
2022-12-11T12:16:52.152Z,100720.28
2022-12-11T12:19:21.969Z,100716.44
2022-12-11T12:21:52.454Z,100721.88
2022-12-11T12:24:35.863Z,100720.69
2022-12-11T12:27:53.709Z,100721.88
2022-12-11T12:30:23.454Z,100717.63
2022-12-11T12:33:00.769Z,100723.25
2022-12-11T12:35:35.782Z,100703.47
2022-12-11T12:38:23.632Z,100702.63
2022-12-11T12:41:21.631Z,100700.06
2022-12-11T12:44:13.912Z,100700.81
2022-12-11T12:46:51.370Z,100704.00
2022-12-11T12:49:29.754Z,100707.00
2022-12-11T12:51:57.838Z,100700.69
2022-12-11T12:54:28.836Z,100704.63
2022-12-11T12:56:57.886Z,100699.09
2022-12-11T12:59:27.164Z,100701.66
2022-12-11T13:01:59.817Z,100712.41
2022-12-11T13:04:56.283Z,100701.47
2022-12-11T13:07:29.981Z,100703.25
2022-12-11T13:10:06.185Z,100705.28
2022-12-11T13:12:46.783Z,100699.34
2022-12-11T13:15:40.658Z,100705.06
2022-12-11T13:18:47.524Z,100708.91
2022-12-11T13:21:34.428Z,100706.78
2022-12-11T13:24:12.789Z,100703.78
2022-12-11T13:26:40.324Z,100704.13
2022-12-11T13:29:26.704Z,100706.66
2022-12-11T13:31:58.968Z,100704.00
2022-12-11T13:34:31.060Z,100714.41
2022-12-11T13:36:58.061Z,100710.19
2022-12-11T13:39:30.987Z,100711.88
2022-12-11T13:42:20.172Z,100712.53
2022-12-11T13:44:49.219Z,100715.72
2022-12-11T13:47:18.575Z,100723.28
2022-12-11T13:49:50.716Z,100721.78
2022-12-11T13:52:19.478Z,100721.34
2022-12-11T13:54:51.662Z,100723.03
2022-12-11T13:57:23.514Z,100721.88
2022-12-11T13:59:55.268Z,100719.31
2022-12-11T14:02:24.266Z,100720.50
2022-12-11T14:04:56.025Z,100723.78
2022-12-11T14:07:29.793Z,100725.81
2022-12-11T14:10:02.675Z,100722.41
2022-12-11T14:12:31.196Z,100723.16
2022-12-11T14:15:02.005Z,100724.00
2022-12-11T14:17:33.312Z,100719.75
2022-12-11T14:20:03.459Z,100721.13
2022-12-11T14:22:30.450Z,100724.31
2022-12-11T14:25:05.398Z,100726.03
2022-12-11T14:27:31.840Z,100722.09
2022-12-11T14:29:58.386Z,100726.16
2022-12-11T14:32:44.759Z,100719.97
2022-12-11T14:35:39.289Z,100720.63
2022-12-11T14:38:20.079Z,100723.78
2022-12-11T14:40:52.058Z,100716.44
2022-12-11T14:43:26.193Z,100718.16
2022-12-11T14:45:58.167Z,100719.31
2022-12-11T14:48:47.931Z,100721.88
2022-12-11T14:51:18.677Z,100719.31
2022-12-11T14:53:47.534Z,100720.69
2022-12-11T14:56:19.043Z,100722.41
2022-12-11T14:58:56.902Z,100733.16
2022-12-11T15:01:32.649Z,100732.59
2022-12-11T15:04:14.158Z,100728.47
2022-12-11T15:06:46.970Z,100725.16
2022-12-11T15:09:37.830Z,100729.53
2022-12-11T15:12:13.987Z,100733.13
2022-12-11T15:14:48.599Z,100734.22
2022-12-11T15:17:15.674Z,100731.03
2022-12-11T15:19:51.725Z,100738.78
2022-12-11T15:22:21.398Z,100735.59
2022-12-11T15:24:51.476Z,100742.72
2022-12-11T15:27:33.031Z,100748.03
2022-12-11T15:29:59.759Z,100746.75
2022-12-11T15:32:26.147Z,100740.38
2022-12-11T15:34:55.643Z,100750.91
2022-12-11T15:37:30.518Z,100748.25
2022-12-11T15:39:59.314Z,100750.34
2022-12-11T15:42:36.385Z,100748.56
2022-12-11T15:45:06.740Z,100760.13
2022-12-11T15:47:33.206Z,100763.00
2022-12-11T15:50:02.250Z,100751.75
2022-12-11T15:52:28.795Z,100756.31
2022-12-11T15:54:55.246Z,100759.94
2022-12-11T15:57:23.863Z,100756.59
2022-12-11T15:59:53.273Z,100761.38
2022-12-11T16:02:19.865Z,100764.63
2022-12-11T16:04:46.485Z,100761.66
2022-12-11T16:07:17.293Z,100762.97
2022-12-11T16:09:44.430Z,100754.72
2022-12-11T16:12:11.184Z,100760.06
2022-12-11T16:14:39.096Z,100750.16
2022-12-11T16:17:07.251Z,100760.09
2022-12-11T16:19:34.943Z,100754.41
2022-12-11T16:22:01.924Z,100759.41
2022-12-11T16:24:28.875Z,100754.00
2022-12-11T16:26:55.632Z,100747.63
2022-12-11T16:29:22.356Z,100745.56
2022-12-11T16:31:48.805Z,100748.16
2022-12-11T16:34:15.233Z,100745.16
2022-12-11T16:36:41.759Z,100745.50
2022-12-11T16:39:10.991Z,100740.38
2022-12-11T16:41:37.883Z,100750.66
2022-12-11T16:44:04.638Z,100745.16
2022-12-11T16:46:31.094Z,100751.44
2022-12-11T16:48:57.590Z,100740.63
2022-12-11T16:51:24.302Z,100746.84
2022-12-11T16:53:50.798Z,100751.72
2022-12-11T16:56:17.646Z,100747.13
2022-12-11T16:58:44.156Z,100744.94
2022-12-11T17:01:14.813Z,100750.88
2022-12-11T17:03:42.505Z,100745.56
2022-12-11T17:06:11.090Z,100743.22
2022-12-11T17:08:37.749Z,100748.94
2022-12-11T17:11:08.388Z,100750.56
2022-12-11T17:13:36.331Z,100739.81
2022-12-11T17:16:15.328Z,100749.38
2022-12-11T17:18:42.696Z,100749.66
2022-12-11T17:21:12.921Z,100747.34
2022-12-11T17:23:40.020Z,100746.75
2022-12-11T17:26:08.858Z,100748.09
2022-12-11T17:28:36.468Z,100751.41
2022-12-11T17:31:13.881Z,100747.69
2022-12-11T17:33:40.569Z,100753.38
2022-12-11T17:36:09.657Z,100742.34
2022-12-11T17:38:36.165Z,100756.72
2022-12-11T17:41:07.091Z,100753.34
2022-12-11T17:43:34.049Z,100756.59
2022-12-11T17:46:00.689Z,100755.00
2022-12-11T17:48:27.217Z,100754.06
2022-12-11T17:50:54.070Z,100750.16
2022-12-11T17:53:22.579Z,100750.34
2022-12-11T17:55:51.906Z,100749.69
2022-12-11T17:58:22.388Z,100754.59
2022-12-11T18:00:54.256Z,100749.47
2022-12-11T18:03:21.976Z,100757.38
2022-12-11T18:05:51.022Z,100757.78
2022-12-11T18:08:22.424Z,100750.00
2022-12-11T18:10:49.281Z,100756.38
2022-12-11T18:13:16.848Z,100757.13
2022-12-11T18:15:43.483Z,100754.78
2022-12-11T18:18:10.098Z,100756.03
2022-12-11T18:20:38.229Z,100756.25
2022-12-11T18:23:05.900Z,100753.03
2022-12-11T18:25:32.755Z,100756.16
2022-12-11T18:27:59.856Z,100758.72
2022-12-11T18:30:26.595Z,100765.75
2022-12-11T18:32:53.187Z,100761.91
2022-12-11T18:35:19.709Z,100759.13
2022-12-11T18:37:46.219Z,100759.91
2022-12-11T18:40:12.701Z,100756.91
2022-12-11T18:42:39.175Z,100761.13
2022-12-11T18:45:06.927Z,100766.69
2022-12-11T18:47:33.501Z,100760.31
2022-12-11T18:50:04.119Z,100756.91
2022-12-11T18:52:34.448Z,100758.81
2022-12-11T18:55:01.005Z,100766.44
2022-12-11T18:57:27.506Z,100766.22
2022-12-11T18:59:54.056Z,100769.97
2022-12-11T19:02:21.574Z,100764.22
2022-12-11T19:04:48.341Z,100764.72
2022-12-11T19:07:14.881Z,100768.47
2022-12-11T19:09:47.558Z,100764.84
2022-12-11T19:12:14.711Z,100759.88
2022-12-11T19:14:41.223Z,100762.63
2022-12-11T19:17:07.929Z,100768.25
2022-12-11T19:19:34.672Z,100755.34
2022-12-11T19:22:01.444Z,100764.97
2022-12-11T19:24:27.999Z,100761.13
2022-12-11T19:26:54.823Z,100764.44
2022-12-11T19:29:24.428Z,100760.81
2022-12-11T19:31:51.519Z,100756.25
2022-12-11T19:34:18.477Z,100759.88
2022-12-11T19:36:45.163Z,100763.91
2022-12-11T19:39:13.363Z,100763.47
2022-12-11T19:41:44.045Z,100757.66
2022-12-11T19:44:11.316Z,100761.47
2022-12-11T19:46:38.343Z,100762.97
2022-12-11T19:49:05.753Z,100753.66
2022-12-11T19:51:40.726Z,100754.47
2022-12-11T19:54:08.949Z,100748.09
2022-12-11T19:56:36.234Z,100753.88
2022-12-11T19:59:08.287Z,100753.38
2022-12-11T20:01:37.332Z,100749.56
2022-12-11T20:04:07.734Z,100750.38
2022-12-11T20:06:36.824Z,100762.22
2022-12-11T20:09:05.357Z,100763.16
2022-12-11T20:11:33.231Z,100768.31
2022-12-11T20:14:00.064Z,100769.72
2022-12-11T20:16:46.209Z,100771.75
2022-12-11T20:19:13.392Z,100771.72
2022-12-11T20:21:39.960Z,100771.81
2022-12-11T20:24:06.703Z,100776.28
2022-12-11T20:26:35.995Z,100774.91
2022-12-11T20:29:05.303Z,100765.44
2022-12-11T20:31:33.082Z,100768.75
2022-12-11T20:33:59.752Z,100769.47
2022-12-11T20:36:26.743Z,100765.66
2022-12-11T20:38:54.969Z,100766.50
2022-12-11T20:41:23.274Z,100773.53
2022-12-11T20:43:50.306Z,100771.63
2022-12-11T20:46:18.519Z,100769.50
2022-12-11T20:48:45.725Z,100768.97
2022-12-11T20:51:13.787Z,100768.75
2022-12-11T20:53:40.835Z,100770.44
2022-12-11T20:56:16.250Z,100778.19
2022-12-11T20:58:43.784Z,100773.94
2022-12-11T21:01:15.165Z,100776.47
2022-12-11T21:03:42.409Z,100772.53
2022-12-11T21:06:17.404Z,100789.28
2022-12-11T21:08:43.826Z,100783.72
2022-12-11T21:11:10.529Z,100781.78
2022-12-11T21:13:37.335Z,100781.19
2022-12-11T21:16:06.244Z,100779.72
2022-12-11T21:18:33.103Z,100786.09
2022-12-11T21:20:59.586Z,100787.72
2022-12-11T21:23:26.598Z,100794.19
2022-12-11T21:25:53.774Z,100790.97
2022-12-11T21:28:20.848Z,100786.22
2022-12-11T21:30:47.447Z,100776.50
2022-12-11T21:33:13.918Z,100787.88
2022-12-11T21:35:40.430Z,100785.91
2022-12-11T21:38:06.819Z,100786.25
2022-12-11T21:40:33.287Z,100780.00
2022-12-11T21:42:59.810Z,100786.66
2022-12-11T21:45:59.297Z,100783.25
2022-12-11T21:48:13.339Z,100782.03
2022-12-11T21:50:40.863Z,100790.53
2022-12-11T21:53:07.464Z,100790.63
2022-12-11T21:55:33.938Z,100782.56
2022-12-11T21:58:00.399Z,100793.97
2022-12-11T22:00:28.174Z,100793.38
2022-12-11T22:02:54.712Z,100790.81
2022-12-11T22:05:21.255Z,100788.94
2022-12-11T22:07:47.812Z,100793.00
2022-12-11T22:10:14.284Z,100795.84
2022-12-11T22:12:40.701Z,100798.53
2022-12-11T22:15:07.993Z,100789.59
2022-12-11T22:17:34.514Z,100804.31
2022-12-11T22:20:01.000Z,100796.88
2022-12-11T22:22:27.514Z,100799.34
2022-12-11T22:24:53.884Z,100792.50
2022-12-11T22:27:23.595Z,100793.19
2022-12-11T22:29:50.533Z,100803.63
2022-12-11T22:32:16.977Z,100803.75
2022-12-11T22:34:43.451Z,100800.59
2022-12-11T22:37:09.912Z,100798.31
2022-12-11T22:39:36.394Z,100803.16
2022-12-11T22:42:03.217Z,100805.53
2022-12-11T22:44:29.713Z,100796.69
2022-12-11T22:46:56.146Z,100805.22
2022-12-11T22:49:22.847Z,100792.16
2022-12-11T22:51:49.435Z,100802.50
2022-12-11T22:54:16.392Z,100806.34
2022-12-11T22:56:43.119Z,100804.41
2022-12-11T22:59:09.582Z,100808.22
2022-12-11T23:01:35.994Z,100809.88
2022-12-11T23:04:02.501Z,100808.81
2022-12-11T23:06:28.970Z,100807.06
2022-12-11T23:08:59.687Z,100807.72
2022-12-11T23:11:37.662Z,100813.19
2022-12-11T23:14:06.121Z,100807.00
2022-12-11T23:16:32.640Z,100804.59
2022-12-11T23:18:59.510Z,100807.25
2022-12-11T23:21:27.379Z,100799.25
2022-12-11T23:23:55.047Z,100799.91
2022-12-11T23:26:21.879Z,100796.69
2022-12-11T23:28:48.851Z,100811.91
2022-12-11T23:31:16.267Z,100807.41
2022-12-11T23:33:42.742Z,100802.16
2022-12-11T23:36:09.587Z,100806.00
2022-12-11T23:38:36.255Z,100802.28
2022-12-11T23:41:04.380Z,100803.84
2022-12-11T23:43:31.630Z,100795.91
2022-12-11T23:45:58.151Z,100806.47
2022-12-11T23:48:24.748Z,100793.94
2022-12-11T23:50:51.418Z,100791.38
2022-12-11T23:53:18.448Z,100793.47
2022-12-11T23:55:45.752Z,100803.31
2022-12-11T23:58:12.789Z,100806.63
